x

Virginia Beach 64 Nm East Of Virginia Beach, Va (44014) Wave Buoy

2:50am - Thu 17th Apr 2014 All times are EDT. -4 hours from GMT.

  • Sig Wave height 9.8ft
  • Swell Direction
  • Peak Period 8s
  • Average Period 6s
  • Wind
    27mph, 31mph gusts
  • Air Temp 48°f
  • Sea Pressure 1029.7mb
  • Virginia Beach 64 Nm East Of Virginia Beach, Va
  • Virginia Beach 64 Nm East Of Virginia Beach, Va

More Historic Weather Station data

Upgrade to MSW Pro to gain access to the past 30 days of data for over 8000 Wavebouys and Weather Stations around the globe.

Join Pro

Comparision Forecast

View Surf forecast
   
Thu 04/17 2:50am 10ft 8s 6s 27 31 mph 1029.7mb - 48f
1:50am 10ft 8s 6s 25 29 mph 1030.1mb 64f 49f
12:50am 10ft 8s 6s 25 29 mph 1030.5mb 64f 49f
Wed 04/16 11:50pm 9ft 7s 6s 20 27 mph 1031.4mb 64f 48f
10:50pm 9.5ft 8s 6s 22 31 mph 1031.2mb 65f 47f
9:50pm 9ft 8s 6s 22 29 mph 1030.9mb 65f 47f
8:50pm 9.5ft 8s 6s 25 31 mph 1030.5mb 65f 45f
7:50pm 9ft 8s 6s 25 31 mph 1029.4mb 65f 45f
6:50pm 9.5ft 9s 6s 27 34 mph 1028.9mb 65f 44f
5:50pm 10ft 9s 6s 27 34 mph 1028.3mb 65f 44f
4:50pm 10ft 9s 6s 27 34 mph 1028.3mb 65f 43f
3:50pm 11ft 9s 7s 27 34 mph 1028.1mb 65f 42f
2:50pm 11.5ft 9s 7s 27 34 mph 1028.1mb 65f 42f
1:50pm 12ft 10s 7s 29 36 mph 1027.8mb 65f 42f
12:50pm 13ft 9s 7s 31 36 mph 1027.4mb 62f 42f
11:50am 12ft 8s 6s 31 38 mph 1027.3mb 62f 42f
10:50am 13.5ft 9s 7s 34 38 mph 1026.2mb 62f 42f
9:50am 13ft 9s 7s 34 40 mph 1024.3mb 62f 42f
8:50am 14.5ft 9s 7s 31 40 mph 1023mb 62f 42f
7:50am 13ft 9s 7s 31 38 mph 1021.5mb 62f 43f
6:50am 12.5ft 8s 7s 34 43 mph 1020.1mb 55f 43f
5:50am 12ft 7s 6s 34 40 mph 1018.4mb 54f 44f
4:50am 12ft 8s 6s 34 43 mph 1017.4mb 54f 44f
3:50am 12ft 8s 6s 36 45 mph 1015.4mb 53f 43f
2:50am 12ft 8s 6s 34 43 mph 1014.1mb 52f 44f
1:50am 12ft 8s 6s 36 43 mph 1012.8mb 51f 45f
12:50am 13ft 7s 6s 38 47 mph 1010.7mb 53f 46f
Tue 04/15 11:50pm 12ft 9s 6s 38 45 mph 1008.5mb 52f 47f
10:50pm 9ft 8s 6s 34 43 mph 1007.5mb 52f 48f
9:50pm 8.5ft 9s 6s 16 25 mph 1005.9mb 54f 59f
8:50pm 8.5ft 8s 6s 18 20 mph 1005.1mb 53f 61f
7:50pm 9.5ft 8s 7s 20 22 mph 1004.4mb 53f 62f
6:50pm 9ft 9s 6s 20 25 mph 1005.3mb 53f 61f
5:50pm 10ft 9s 6s 20 25 mph 1005.7mb 53f 61f
4:50pm 10ft 9s 7s 22 25 mph 1005.9mb 53f 60f
3:50pm 11ft 9s 7s 20 25 mph 1006.1mb 52f 61f
2:50pm 10ft 9s 6s 25 29 mph 1006.8mb 52f 62f
1:50pm 10ft 9s 7s 22 27 mph 1007.6mb 53f 62f
12:50pm 11ft 9s 7s 25 31 mph 1007.9mb 56f 64f
11:50am 10.5ft 8s 6s 27 31 mph 1008.5mb 60f 65f
10:50am 9.5ft 8s 6s 25 29 mph 1009.1mb 61f 65f
9:50am 9.5ft 8s 6s 27 31 mph 1009.2mb 62f 65f
8:50am 9ft 8s 6s 27 34 mph 1009.6mb 61f 65f
7:50am 8ft 8s 6s 29 36 mph 1009.5mb 61f 66f
6:50am 8ft 8s 6s 29 34 mph 1009.8mb 55f 66f
5:50am 8ft 8s 6s 25 29 mph 1010.5mb 54f 64f
4:50am 8.5ft 8s 6s 25 29 mph 1011.2mb 53f 63f
3:50am 8ft 8s 6s 22 27 mph 1012mb 52f 62f
2:50am 8ft 8s 6s 20 22 mph 1012.4mb 51f 61f
1:50am 8ft 8s 6s 20 22 mph 1013.3mb 51f 61f
12:50am 7.5ft 8s 6s 22 25 mph 1013.5mb 52f 63f
Mon 04/14 11:50pm 7ft 7s 6s 18 22 mph 1014.8mb 53f 63f
10:50pm 6ft 7s 5s 20 22 mph 1015.2mb 60f 64f
9:50pm 6ft 7s 5s 25 29 mph 1015.4mb 61f 64f
8:50pm 6ft 7s 5s 18 20 mph 1015.6mb 62f 63f
6:50pm 4.5ft 6s 5s 22 27 mph 1015.5mb 64f 65f
5:50pm 4.5ft 6s 5s 20 25 mph 1015.9mb 64f 65f
4:50pm 4ft 7s 4s 20 25 mph 1016.2mb 56f 65f
3:50pm 4ft 6s 5s 20 22 mph 1016.9mb 53f 63f
2:50pm 3.5ft 6s 5s 13
mph
1017.9mb 53f 58f
1:50pm 3.5ft 6s 5s 16
mph
1018.6mb 53f 63f
12:50pm 4ft 6s 5s 13 16 mph 1019.5mb 52f 62f
11:50am 4ft 6s 5s 16 18 mph 1020.1mb 52f 63f
10:50am 3.5ft 6s 5s 18 20 mph 1020.2mb 53f 64f
9:50am 3.5ft 6s 5s 18 20 mph 1020.6mb 60f 63f
8:50am 3.5ft 6s 5s 13 16 mph 1020.3mb 62f 61f
7:50am 3.5ft 6s 5s 11 13 mph 1020.4mb - 60f
6:50am 3.5ft 5s 4s 11 13 mph 1020.3mb 50f 57f
5:50am 3.5ft 5s 4s 18 20 mph 1019.5mb 50f 59f
4:50am 3.5ft 6s 4s 11 13 mph 1020.3mb 50f 56f
3:50am 3ft 5s 4s 11
mph
1021mb 50f 56f
2:50am 3.5ft 5s 4s 11
mph
1021.4mb 50f 56f
1:50am 3ft 5s 4s 13
mph
1021.1mb 50f 57f
12:50am 3ft 5s 4s 13 16 mph 1021.3mb 51f 57f
Sun 04/13 11:50pm 2.5ft 5s 4s 13
mph
1021.9mb 52f 58f
10:50pm 2.5ft 4s 4s 16 18 mph 1021.9mb 53f 60f
9:50pm 2.5ft 5s 4s 18 20 mph 1021.7mb 56f 63f
8:50pm 2.5ft 7s 3s 18 20 mph 1021.6mb 60f 65f
7:50pm 2ft 7s 4s 20 22 mph 1021.2mb 64f 66f
6:50pm 1.6ft 7s 3s 20 22 mph 1021.3mb 65f 67f
5:50pm 1.6ft 9s 3s 18 20 mph 1021.9mb 65f 67f
4:50pm 1.6ft 8s 4s 18 20 mph 1021.8mb - 67f
3:50pm 1.6ft 8s 4s 16
mph
1022.2mb 53f 66f
2:50pm 1.6ft 7s 4s 11
mph
1023mb 52f 60f
1:50pm 1.6ft 8s 4s 9
mph
1023.4mb 51f 57f
12:50pm 2ft 4s 4s 11
mph
1023.7mb 51f 57f
11:50am 2ft 4s 4s 9 11 mph 1024.4mb 50f 56f
10:50am 2ft 4s 4s 9 11 mph 1024.9mb 51f 57f
9:50am 1.6ft 8s 5s 9
mph
1024.9mb 50f 56f
8:50am 1.6ft 7s 5s 9 11 mph 1024.7mb 49f 57f
7:50am 1.6ft 8s 5s 9
mph
1024.3mb 49f 57f